createdAt,value
2018-07-19T00:00:02.580Z,0
2018-07-19T00:00:43.154Z,0
2018-07-19T00:01:23.728Z,0
2018-07-19T00:02:04.337Z,0
2018-07-19T00:02:44.850Z,0
2018-07-19T00:03:25.420Z,0
2018-07-19T00:04:05.988Z,0
2018-07-19T00:04:46.556Z,0
2018-07-19T00:05:27.117Z,0
2018-07-19T00:06:07.685Z,0
2018-07-19T00:06:48.251Z,0
2018-07-19T00:07:28.816Z,0
2018-07-19T00:08:09.433Z,0
2018-07-19T00:08:49.953Z,0
2018-07-19T00:09:30.518Z,0
2018-07-19T00:10:11.105Z,0
2018-07-19T00:10:51.671Z,0
2018-07-19T00:11:32.249Z,0
2018-07-19T00:12:12.810Z,0
2018-07-19T00:12:53.367Z,0
2018-07-19T00:13:33.940Z,0
2018-07-19T00:14:14.506Z,0
2018-07-19T00:14:55.077Z,0
2018-07-19T00:15:35.655Z,0
2018-07-19T00:16:16.221Z,0
2018-07-19T00:16:56.791Z,0
2018-07-19T00:17:37.389Z,0
2018-07-19T00:18:17.964Z,0
2018-07-19T00:18:58.604Z,0
2018-07-19T00:19:39.100Z,0
2018-07-19T00:20:19.670Z,0
2018-07-19T00:21:00.243Z,0
2018-07-19T00:21:40.809Z,0
2018-07-19T00:22:21.382Z,0
2018-07-19T00:23:01.954Z,0
2018-07-19T00:23:42.523Z,0
2018-07-19T00:24:23.102Z,0
2018-07-19T00:25:03.671Z,0
2018-07-19T00:25:44.247Z,0
2018-07-19T00:26:24.807Z,0
2018-07-19T00:27:05.379Z,0
2018-07-19T00:27:45.960Z,0
2018-07-19T00:28:26.526Z,0
2018-07-19T00:29:07.093Z,0
2018-07-19T00:29:47.667Z,0
2018-07-19T00:30:28.241Z,0
2018-07-19T00:31:08.815Z,0
2018-07-19T00:31:49.379Z,0
2018-07-19T00:32:29.946Z,0
2018-07-19T00:33:10.513Z,0
2018-07-19T00:33:51.109Z,0
2018-07-19T00:34:31.661Z,0
2018-07-19T00:35:12.239Z,0
2018-07-19T00:35:52.806Z,0
2018-07-19T00:36:33.377Z,0
2018-07-19T00:37:13.937Z,0
2018-07-19T00:37:54.510Z,0
2018-07-19T00:38:35.079Z,0
2018-07-19T00:39:15.648Z,0
2018-07-19T00:39:56.220Z,0
2018-07-19T00:40:36.790Z,0
2018-07-19T00:41:17.355Z,0
2018-07-19T00:41:57.925Z,0
2018-07-19T00:42:38.497Z,0
2018-07-19T00:43:19.070Z,0
2018-07-19T00:43:59.644Z,0
2018-07-19T00:44:40.226Z,0
2018-07-19T00:45:20.803Z,0
2018-07-19T00:46:01.392Z,0
2018-07-19T00:46:41.955Z,0
2018-07-19T00:47:22.539Z,0
2018-07-19T00:48:03.098Z,0
2018-07-19T00:48:43.664Z,0
2018-07-19T00:49:24.224Z,0
2018-07-19T00:50:04.803Z,0
2018-07-19T00:50:45.366Z,0
2018-07-19T00:51:25.924Z,0
2018-07-19T00:52:06.503Z,0
2018-07-19T00:52:47.074Z,0
2018-07-19T00:53:27.650Z,0
2018-07-19T00:54:08.223Z,0
2018-07-19T00:54:48.803Z,0
2018-07-19T00:55:29.365Z,0
2018-07-19T00:56:09.936Z,0
2018-07-19T00:56:50.514Z,0
2018-07-19T00:57:31.098Z,0
2018-07-19T00:58:11.663Z,0
2018-07-19T00:58:52.257Z,0
2018-07-19T00:59:32.812Z,0
2018-07-19T01:00:13.374Z,0
2018-07-19T01:00:53.947Z,0
2018-07-19T01:01:34.513Z,0
2018-07-19T01:02:15.087Z,0
2018-07-19T01:02:55.647Z,0
2018-07-19T01:03:36.226Z,0
2018-07-19T01:04:16.788Z,0
2018-07-19T01:04:57.374Z,0
2018-07-19T01:05:37.942Z,0
2018-07-19T01:06:18.512Z,0
2018-07-19T01:06:59.086Z,0
2018-07-19T01:07:39.650Z,0
2018-07-19T01:08:20.244Z,0
2018-07-19T01:09:00.814Z,0
2018-07-19T01:09:41.400Z,0
2018-07-19T01:10:21.976Z,0
2018-07-19T01:11:02.544Z,0
2018-07-19T01:11:43.112Z,0
2018-07-19T01:12:23.686Z,0
2018-07-19T01:13:04.263Z,0
2018-07-19T01:13:44.836Z,0
2018-07-19T01:14:25.399Z,0
2018-07-19T01:15:05.950Z,0
2018-07-19T01:15:46.547Z,0
2018-07-19T01:16:27.100Z,0
2018-07-19T01:17:07.675Z,0
2018-07-19T01:17:48.243Z,0
2018-07-19T01:18:28.809Z,0
2018-07-19T01:19:09.380Z,0
2018-07-19T01:19:49.998Z,0
2018-07-19T01:20:30.528Z,0
2018-07-19T01:21:11.100Z,0
2018-07-19T01:21:51.673Z,0
2018-07-19T01:22:32.241Z,0
2018-07-19T01:23:12.820Z,0
2018-07-19T01:23:53.390Z,0
2018-07-19T01:24:33.972Z,0
2018-07-19T01:25:14.535Z,0
2018-07-19T01:25:55.103Z,0
2018-07-19T01:26:35.676Z,0
2018-07-19T01:27:16.247Z,0
2018-07-19T01:27:56.820Z,0
2018-07-19T01:28:37.396Z,0
2018-07-19T01:29:17.974Z,0
2018-07-19T01:29:58.541Z,0
2018-07-19T01:30:39.114Z,0
2018-07-19T01:31:19.687Z,0
2018-07-19T01:32:00.253Z,0
2018-07-19T01:32:40.816Z,0
2018-07-19T01:33:21.391Z,0
2018-07-19T01:34:01.967Z,0
2018-07-19T01:34:42.534Z,0
2018-07-19T01:35:23.109Z,0
2018-07-19T01:36:03.672Z,0
2018-07-19T01:36:44.243Z,0
2018-07-19T01:37:24.815Z,0
2018-07-19T01:38:05.378Z,0
2018-07-19T01:38:45.950Z,0
2018-07-19T01:39:26.513Z,0
2018-07-19T01:40:07.079Z,0
2018-07-19T01:40:47.640Z,0
2018-07-19T01:41:28.207Z,0
2018-07-19T01:42:08.768Z,0
2018-07-19T01:42:49.323Z,0
2018-07-19T01:43:29.893Z,0
2018-07-19T01:44:10.466Z,0
2018-07-19T01:44:51.036Z,0
2018-07-19T01:45:31.617Z,0
2018-07-19T01:46:12.180Z,0
2018-07-19T01:46:52.758Z,0
2018-07-19T01:47:33.320Z,0
2018-07-19T01:48:13.888Z,0
2018-07-19T01:48:54.462Z,0
2018-07-19T01:49:35.037Z,0
2018-07-19T01:50:15.601Z,0
2018-07-19T01:50:56.174Z,0
2018-07-19T01:51:36.736Z,0
2018-07-19T01:52:17.308Z,0
2018-07-19T01:52:57.870Z,0
2018-07-19T01:53:38.433Z,0
2018-07-19T01:54:18.998Z,0
2018-07-19T01:54:59.561Z,0
2018-07-19T01:55:40.136Z,0
2018-07-19T01:56:20.710Z,0
2018-07-19T01:57:01.266Z,0
2018-07-19T01:57:41.847Z,0
2018-07-19T01:58:22.414Z,0
2018-07-19T01:59:02.987Z,0
2018-07-19T01:59:43.559Z,0
2018-07-19T02:00:24.136Z,0
2018-07-19T02:01:04.715Z,0
2018-07-19T02:01:45.270Z,0
2018-07-19T02:02:25.849Z,0
2018-07-19T02:03:06.427Z,0
2018-07-19T02:03:46.991Z,0
2018-07-19T02:04:27.558Z,0
2018-07-19T02:05:08.132Z,0
2018-07-19T02:05:48.699Z,0
2018-07-19T02:06:29.271Z,0
2018-07-19T02:07:09.844Z,0
2018-07-19T02:07:50.414Z,0
2018-07-19T02:08:30.984Z,0
2018-07-19T02:09:11.559Z,0
2018-07-19T02:09:52.128Z,0
2018-07-19T02:10:32.701Z,0
2018-07-19T02:11:13.270Z,0
2018-07-19T02:11:53.844Z,0
2018-07-19T02:12:34.417Z,0
2018-07-19T02:13:14.989Z,0
2018-07-19T02:13:55.560Z,0
2018-07-19T02:14:36.132Z,0
2018-07-19T02:15:16.704Z,0
2018-07-19T02:15:57.293Z,0
2018-07-19T02:16:37.867Z,0
2018-07-19T02:17:18.434Z,0
2018-07-19T02:17:59.014Z,0
2018-07-19T02:18:39.584Z,0
2018-07-19T02:19:20.158Z,0
2018-07-19T02:20:00.731Z,0
2018-07-19T02:20:41.305Z,0
2018-07-19T02:21:21.875Z,0
2018-07-19T02:22:02.450Z,0
2018-07-19T02:22:43.022Z,0
2018-07-19T02:23:23.587Z,0
2018-07-19T02:24:04.156Z,0
2018-07-19T02:24:44.731Z,0
2018-07-19T02:25:25.300Z,0
2018-07-19T02:26:05.870Z,0
2018-07-19T02:26:46.436Z,0
2018-07-19T02:27:27.009Z,0
2018-07-19T02:28:07.581Z,0
2018-07-19T02:28:48.157Z,0
2018-07-19T02:29:28.733Z,0
2018-07-19T02:30:09.300Z,0
2018-07-19T02:30:49.878Z,0
2018-07-19T02:31:30.451Z,0
2018-07-19T02:32:11.019Z,0
2018-07-19T02:32:51.594Z,0
2018-07-19T02:33:32.161Z,0
2018-07-19T02:34:12.735Z,0
2018-07-19T02:34:53.309Z,0
2018-07-19T02:35:33.882Z,0
2018-07-19T02:36:14.456Z,0
2018-07-19T02:36:55.029Z,0
2018-07-19T02:37:35.602Z,0
2018-07-19T02:38:16.173Z,0
2018-07-19T02:38:56.741Z,0
2018-07-19T02:39:37.317Z,0
2018-07-19T02:40:17.889Z,0
2018-07-19T02:40:58.465Z,0
2018-07-19T02:41:39.036Z,0
2018-07-19T02:42:19.613Z,0
2018-07-19T02:43:00.183Z,0
2018-07-19T02:43:40.809Z,0
2018-07-19T02:44:21.325Z,0
2018-07-19T02:45:01.902Z,0
2018-07-19T02:45:42.469Z,0
2018-07-19T02:46:23.042Z,0
2018-07-19T02:47:03.620Z,0
2018-07-19T02:47:44.197Z,0
2018-07-19T02:48:24.767Z,0
2018-07-19T02:49:05.328Z,0
2018-07-19T02:49:45.898Z,0
2018-07-19T02:50:26.475Z,0
2018-07-19T02:51:07.047Z,0
2018-07-19T02:51:47.614Z,0
2018-07-19T02:52:28.179Z,0
2018-07-19T02:53:08.752Z,0
2018-07-19T02:53:49.325Z,0
2018-07-19T02:54:29.898Z,0
2018-07-19T02:55:10.471Z,0
2018-07-19T02:55:51.043Z,0
2018-07-19T02:56:31.612Z,0
2018-07-19T02:57:12.185Z,0
2018-07-19T02:57:52.762Z,0
2018-07-19T02:58:33.331Z,0
2018-07-19T02:59:13.903Z,0
2018-07-19T02:59:54.476Z,0
2018-07-19T03:00:35.050Z,0
2018-07-19T03:01:15.619Z,0
2018-07-19T03:01:56.194Z,0
2018-07-19T03:02:36.769Z,0
2018-07-19T03:03:17.336Z,0
2018-07-19T03:03:57.914Z,0
2018-07-19T03:04:38.478Z,0
2018-07-19T03:05:19.044Z,0
2018-07-19T03:05:59.605Z,0
2018-07-19T03:06:40.171Z,0
2018-07-19T03:07:20.746Z,0
2018-07-19T03:08:01.308Z,0
2018-07-19T03:08:41.871Z,0
2018-07-19T03:09:22.440Z,0
2018-07-19T03:10:03.014Z,0
2018-07-19T03:10:43.586Z,0
2018-07-19T03:11:24.154Z,0
2018-07-19T03:12:04.726Z,0
2018-07-19T03:12:45.297Z,0
2018-07-19T03:13:25.868Z,0
2018-07-19T03:14:06.445Z,0
2018-07-19T03:14:47.015Z,0
2018-07-19T03:15:27.587Z,0
2018-07-19T03:16:08.155Z,0
2018-07-19T03:16:48.730Z,0
2018-07-19T03:17:29.304Z,0
2018-07-19T03:18:09.871Z,0
2018-07-19T03:18:50.433Z,0
2018-07-19T03:19:31.004Z,5
2018-07-19T03:20:11.585Z,5
2018-07-19T03:20:52.145Z,5
2018-07-19T03:21:32.720Z,5
2018-07-19T03:22:13.292Z,5
2018-07-19T03:22:53.862Z,5
2018-07-19T03:23:34.436Z,5
2018-07-19T03:24:15.010Z,5
2018-07-19T03:24:55.582Z,5
2018-07-19T03:25:36.145Z,5
2018-07-19T03:26:16.715Z,5
2018-07-19T03:26:57.281Z,5
2018-07-19T03:27:37.855Z,5
2018-07-19T03:28:18.422Z,5
2018-07-19T03:28:58.994Z,5
2018-07-19T03:29:39.566Z,5
2018-07-19T03:30:20.139Z,5
2018-07-19T03:31:00.759Z,5
2018-07-19T03:31:41.281Z,5
2018-07-19T03:32:21.854Z,10
2018-07-19T03:33:02.426Z,10
2018-07-19T03:33:42.984Z,10
2018-07-19T03:34:23.541Z,10
2018-07-19T03:35:04.123Z,10
2018-07-19T03:35:44.696Z,10
2018-07-19T03:36:25.276Z,10
2018-07-19T03:37:05.846Z,10
2018-07-19T03:37:46.425Z,10
2018-07-19T03:38:26.980Z,10
2018-07-19T03:39:07.554Z,10
2018-07-19T03:39:48.117Z,10
2018-07-19T03:40:28.699Z,10
2018-07-19T03:41:09.264Z,10
2018-07-19T03:41:49.838Z,10
2018-07-19T03:42:30.407Z,10
2018-07-19T03:43:10.976Z,15
2018-07-19T03:43:51.548Z,15
2018-07-19T03:44:32.120Z,15
2018-07-19T03:45:12.693Z,15
2018-07-19T03:45:53.263Z,15
2018-07-19T03:46:33.823Z,15
2018-07-19T03:47:14.385Z,15
2018-07-19T03:47:54.962Z,15
2018-07-19T03:48:35.529Z,15
2018-07-19T03:49:16.105Z,15
2018-07-19T03:49:56.674Z,15
2018-07-19T03:50:37.363Z,15
2018-07-19T03:51:17.819Z,15
2018-07-19T03:51:58.396Z,20
2018-07-19T03:52:38.966Z,20
2018-07-19T03:53:19.535Z,20
2018-07-19T03:54:00.105Z,20
2018-07-19T03:54:40.668Z,20
2018-07-19T03:55:21.249Z,20
2018-07-19T03:56:01.830Z,20
2018-07-19T03:56:42.397Z,25
2018-07-19T03:57:22.971Z,25
2018-07-19T03:58:03.540Z,25
2018-07-19T03:58:44.105Z,25
2018-07-19T03:59:24.672Z,25
2018-07-19T04:00:05.237Z,25
2018-07-19T04:00:45.812Z,25
2018-07-19T04:01:26.385Z,25
2018-07-19T04:02:06.959Z,25
2018-07-19T04:02:47.534Z,30
2018-07-19T04:03:28.103Z,30
2018-07-19T04:04:08.677Z,30
2018-07-19T04:04:49.248Z,30
2018-07-19T04:05:29.801Z,30
2018-07-19T04:06:10.382Z,30
2018-07-19T04:06:50.952Z,30
2018-07-19T04:07:31.521Z,35
2018-07-19T04:08:12.094Z,35
2018-07-19T04:08:52.673Z,35
2018-07-19T04:09:33.244Z,35
2018-07-19T04:10:13.832Z,35
2018-07-19T04:10:54.397Z,35
2018-07-19T04:11:34.981Z,35
2018-07-19T04:12:15.599Z,35
2018-07-19T04:12:56.176Z,40
2018-07-19T04:13:36.751Z,40
2018-07-19T04:14:17.322Z,40
2018-07-19T04:14:57.896Z,40
2018-07-19T04:15:38.450Z,40
2018-07-19T04:16:19.028Z,40
2018-07-19T04:16:59.697Z,40
2018-07-19T04:17:40.199Z,40
2018-07-19T04:18:20.806Z,40
2018-07-19T04:19:01.380Z,40
2018-07-19T04:19:41.951Z,40
2018-07-19T04:20:22.529Z,40
2018-07-19T04:21:03.100Z,40
2018-07-19T04:21:43.674Z,40
2018-07-19T04:22:24.245Z,40
2018-07-19T04:23:04.812Z,40
2018-07-19T04:23:45.384Z,45
2018-07-19T04:24:25.949Z,50
2018-07-19T04:25:06.575Z,50
2018-07-19T04:25:47.083Z,50
2018-07-19T04:26:27.664Z,50
2018-07-19T04:27:08.231Z,50
2018-07-19T04:27:48.797Z,55
2018-07-19T04:28:29.368Z,55
2018-07-19T04:29:09.943Z,55
2018-07-19T04:29:50.556Z,55
2018-07-19T04:30:31.113Z,55
2018-07-19T04:31:11.684Z,55
2018-07-19T04:31:52.273Z,60
2018-07-19T04:32:32.851Z,60
2018-07-19T04:33:13.386Z,60
2018-07-19T04:33:53.950Z,60
2018-07-19T04:34:34.526Z,65
2018-07-19T04:35:15.099Z,65
2018-07-19T04:35:55.656Z,65
2018-07-19T04:36:36.225Z,65
2018-07-19T04:37:16.788Z,65
2018-07-19T04:37:57.367Z,65
2018-07-19T04:38:37.933Z,65
2018-07-19T04:39:18.497Z,70
2018-07-19T04:39:59.086Z,65
2018-07-19T04:40:39.625Z,65
2018-07-19T04:41:20.309Z,70
2018-07-19T04:42:00.872Z,70
2018-07-19T04:42:41.485Z,70
2018-07-19T04:43:22.055Z,70
2018-07-19T04:44:02.616Z,75
2018-07-19T04:44:43.190Z,75
2018-07-19T04:45:23.761Z,75
2018-07-19T04:46:04.363Z,75
2018-07-19T04:46:44.930Z,80
2018-07-19T04:47:25.501Z,75
2018-07-19T04:48:06.073Z,75
2018-07-19T04:48:46.641Z,75
2018-07-19T04:49:27.244Z,80
2018-07-19T04:50:07.802Z,80
2018-07-19T04:50:48.386Z,80
2018-07-19T04:51:28.961Z,85
2018-07-19T04:52:09.535Z,85
2018-07-19T04:52:50.110Z,85
2018-07-19T04:53:30.676Z,85
2018-07-19T04:54:11.245Z,90
2018-07-19T04:54:51.818Z,90
2018-07-19T04:55:32.390Z,90
2018-07-19T04:56:12.962Z,90
2018-07-19T04:56:53.577Z,90
2018-07-19T04:57:34.147Z,95
2018-07-19T04:58:14.713Z,95
2018-07-19T04:58:55.314Z,100
2018-07-19T04:59:35.880Z,100
2018-07-19T05:00:16.441Z,100
2018-07-19T05:00:56.997Z,100
2018-07-19T05:01:37.572Z,100
2018-07-19T05:02:18.183Z,100
2018-07-19T05:02:58.743Z,100
2018-07-19T05:03:39.322Z,105
2018-07-19T05:04:19.899Z,105
2018-07-19T05:05:00.473Z,105
2018-07-19T05:05:41.040Z,105
2018-07-19T05:06:21.612Z,105
2018-07-19T05:07:02.182Z,105
2018-07-19T05:07:42.754Z,105
2018-07-19T05:08:23.305Z,105
2018-07-19T05:09:03.870Z,110
2018-07-19T05:09:44.446Z,110
2018-07-19T05:10:25.040Z,110
2018-07-19T05:11:05.575Z,115
2018-07-19T05:11:46.169Z,115
2018-07-19T05:12:26.794Z,115
2018-07-19T05:13:07.353Z,115
2018-07-19T05:13:47.925Z,120
2018-07-19T05:14:28.496Z,120
2018-07-19T05:15:09.047Z,120
2018-07-19T05:15:49.645Z,120
2018-07-19T05:16:30.206Z,120
2018-07-19T05:17:10.771Z,125
2018-07-19T05:17:51.336Z,125
2018-07-19T05:18:31.917Z,125
2018-07-19T05:19:12.488Z,130
2018-07-19T05:19:53.055Z,130
2018-07-19T05:20:33.618Z,130
2018-07-19T05:21:14.187Z,130
2018-07-19T05:21:54.760Z,135
2018-07-19T05:22:35.336Z,135
2018-07-19T05:23:15.982Z,140
2018-07-19T05:23:56.482Z,145
2018-07-19T05:24:37.057Z,140
2018-07-19T05:25:17.632Z,140
2018-07-19T05:25:58.192Z,145
2018-07-19T05:26:38.776Z,145
2018-07-19T05:27:19.352Z,145
2018-07-19T05:27:59.918Z,150
2018-07-19T05:28:40.478Z,155
2018-07-19T05:29:21.049Z,155
2018-07-19T05:30:01.624Z,160
2018-07-19T05:30:42.189Z,160
2018-07-19T05:31:22.765Z,165
2018-07-19T05:32:03.330Z,165
2018-07-19T05:32:43.898Z,170
2018-07-19T05:33:24.477Z,170
2018-07-19T05:34:05.047Z,175
2018-07-19T05:34:45.600Z,180
2018-07-19T05:35:26.167Z,175
2018-07-19T05:36:06.723Z,245
2018-07-19T05:36:47.294Z,560
2018-07-19T05:37:27.868Z,910
2018-07-19T05:38:08.443Z,1090
2018-07-19T05:38:49.008Z,1115
2018-07-19T05:39:29.568Z,1100
2018-07-19T05:40:10.159Z,1090
2018-07-19T05:40:50.694Z,1115
2018-07-19T05:41:31.268Z,1140
2018-07-19T05:42:11.986Z,1070
2018-07-19T05:42:52.427Z,1130
2018-07-19T05:43:33.236Z,1185
2018-07-19T05:44:14.019Z,1165
2018-07-19T05:44:54.580Z,1185
2018-07-19T05:45:35.160Z,1310
2018-07-19T05:46:15.726Z,1370
2018-07-19T05:46:56.293Z,1280
2018-07-19T05:47:36.980Z,1265
2018-07-19T05:48:17.637Z,1225
2018-07-19T05:48:58.205Z,675
2018-07-19T05:49:38.778Z,960
2018-07-19T05:50:19.364Z,1245
2018-07-19T05:50:59.940Z,1325
2018-07-19T05:51:40.545Z,1380
2018-07-19T05:52:21.117Z,1385
2018-07-19T05:53:01.698Z,1365
2018-07-19T05:53:42.275Z,1305
2018-07-19T05:54:22.986Z,1255
2018-07-19T05:55:03.696Z,620
2018-07-19T05:55:44.275Z,1370
2018-07-19T05:56:25.886Z,1385
2018-07-19T05:57:06.880Z,1350
2018-07-19T05:57:47.494Z,1395
2018-07-19T05:58:28.295Z,1365
2018-07-19T05:59:08.773Z,1330
2018-07-19T05:59:49.351Z,1350
2018-07-19T06:00:29.948Z,1375
2018-07-19T06:01:10.660Z,1365
2018-07-19T06:01:51.234Z,1380
2018-07-19T06:02:32.792Z,1290
2018-07-19T06:03:13.366Z,1315
2018-07-19T06:03:53.950Z,1365
2018-07-19T06:04:35.278Z,1345
2018-07-19T06:05:15.888Z,1405
2018-07-19T06:05:56.465Z,1400
2018-07-19T06:06:37.202Z,1335
2018-07-19T06:07:17.912Z,1360
2018-07-19T06:07:58.565Z,1365
2018-07-19T06:08:39.810Z,1300
2018-07-19T06:09:20.386Z,920
2018-07-19T06:10:01.529Z,1325
2018-07-19T06:10:43.022Z,1235
2018-07-19T06:11:23.657Z,1270
2018-07-19T06:12:04.263Z,1235
2018-07-19T06:12:44.844Z,715
2018-07-19T06:13:25.410Z,985
2018-07-19T06:14:05.984Z,1430
2018-07-19T06:14:46.563Z,1430
2018-07-19T06:15:27.135Z,1430
2018-07-19T06:16:07.761Z,1395
2018-07-19T06:16:48.265Z,1385
2018-07-19T06:17:28.844Z,1410
2018-07-19T06:18:09.416Z,1415
2018-07-19T06:18:49.991Z,1360
2018-07-19T06:19:30.626Z,1450
2018-07-19T06:20:11.159Z,1525
2018-07-19T06:20:51.813Z,1475
2018-07-19T06:21:32.384Z,1355
2018-07-19T06:22:13.158Z,1360
2018-07-19T06:22:53.718Z,1355
2018-07-19T06:23:34.294Z,1380
2018-07-19T06:24:14.871Z,1335
2018-07-19T06:24:55.450Z,1355
2018-07-19T06:25:36.030Z,1355
2018-07-19T06:26:16.596Z,1285
2018-07-19T06:26:57.153Z,1295
2018-07-19T06:27:37.792Z,1355
2018-07-19T06:28:18.415Z,1320
2018-07-19T06:28:59.045Z,1360
2018-07-19T06:29:39.623Z,1375
2018-07-19T06:30:20.349Z,1355
2018-07-19T06:31:01.348Z,1335
2018-07-19T06:31:42.226Z,1305
2018-07-19T06:32:23.615Z,1370
2018-07-19T06:33:04.208Z,1395
2018-07-19T06:33:44.785Z,1415
2018-07-19T06:34:25.384Z,1340
2018-07-19T06:35:05.924Z,1320
2018-07-19T06:35:46.522Z,1200
2018-07-19T06:36:27.130Z,1305
2018-07-19T06:37:07.707Z,1375
2018-07-19T06:37:48.282Z,1380
2018-07-19T06:38:28.860Z,1400
2018-07-19T06:39:09.443Z,1405
2018-07-19T06:39:50.242Z,1445
2018-07-19T06:40:30.821Z,1490
2018-07-19T06:41:11.440Z,1515
2018-07-19T06:41:51.948Z,1495
2018-07-19T06:42:32.556Z,1480
2018-07-19T06:43:13.113Z,1455
2018-07-19T06:43:53.691Z,1490
2018-07-19T06:44:34.274Z,1315
2018-07-19T06:45:14.849Z,1430
2018-07-19T06:45:55.417Z,1445
2018-07-19T06:46:35.981Z,670
2018-07-19T06:47:16.556Z,1560
2018-07-19T06:47:57.138Z,1590
2018-07-19T06:48:37.708Z,1110
2018-07-19T06:49:18.422Z,935
2018-07-19T06:49:59.020Z,895
2018-07-19T06:50:39.596Z,340
2018-07-19T06:51:20.233Z,330
2018-07-19T06:52:00.932Z,600
2018-07-19T06:52:41.577Z,330
2018-07-19T06:53:22.295Z,285
2018-07-19T06:54:02.870Z,260
2018-07-19T06:54:43.442Z,245
2018-07-19T06:55:24.027Z,270
2018-07-19T06:56:04.597Z,365
2018-07-19T06:56:45.495Z,210
2018-07-19T06:57:26.120Z,205
2018-07-19T06:58:06.636Z,210
2018-07-19T06:58:47.216Z,230
2018-07-19T06:59:27.794Z,425
2018-07-19T07:00:08.370Z,225
2018-07-19T07:00:48.950Z,260
2018-07-19T07:01:29.527Z,495
2018-07-19T07:02:10.084Z,250
2018-07-19T07:02:50.659Z,325
2018-07-19T07:03:31.278Z,370
2018-07-19T07:04:11.804Z,275
2018-07-19T07:04:52.370Z,355
2018-07-19T07:05:32.955Z,160
2018-07-19T07:06:13.517Z,120
2018-07-19T07:06:54.114Z,100
2018-07-19T07:07:34.681Z,85
2018-07-19T07:08:15.292Z,75
2018-07-19T07:08:55.867Z,70
2018-07-19T07:09:36.409Z,60
2018-07-19T07:10:16.977Z,60
2018-07-19T07:10:58.154Z,55
2018-07-19T07:11:38.754Z,55
2018-07-19T07:12:19.495Z,55
2018-07-19T07:13:00.087Z,55
2018-07-19T07:13:40.661Z,50
2018-07-19T07:14:21.233Z,50
2018-07-19T07:15:01.871Z,50
2018-07-19T07:15:42.382Z,50
2018-07-19T07:16:22.963Z,55
2018-07-19T07:17:03.534Z,60
2018-07-19T07:17:44.111Z,65
2018-07-19T07:18:24.675Z,65
2018-07-19T07:19:05.254Z,70
2018-07-19T07:19:45.830Z,75
2018-07-19T07:20:26.398Z,80
2018-07-19T07:21:07.028Z,80
2018-07-19T07:21:47.564Z,80
2018-07-19T07:22:28.138Z,85
2018-07-19T07:23:08.706Z,85
2018-07-19T07:23:49.281Z,85
2018-07-19T07:24:29.856Z,90
2018-07-19T07:25:10.429Z,90
2018-07-19T07:25:51.001Z,90
2018-07-19T07:26:31.574Z,100
2018-07-19T07:27:12.160Z,100
2018-07-19T07:27:52.738Z,120
2018-07-19T07:28:33.302Z,90
2018-07-19T07:29:13.868Z,90
2018-07-19T07:29:54.445Z,90
2018-07-19T07:30:35.019Z,90
2018-07-19T07:31:15.582Z,90
2018-07-19T07:31:56.154Z,95
2018-07-19T07:32:36.739Z,100
2018-07-19T07:33:17.474Z,110
2018-07-19T07:33:58.091Z,120
2018-07-19T07:34:38.640Z,120
2018-07-19T07:35:19.636Z,120
2018-07-19T07:36:00.382Z,120
2018-07-19T07:36:40.946Z,125
2018-07-19T07:37:21.510Z,115
2018-07-19T07:38:02.075Z,125
2018-07-19T07:38:42.626Z,130
2018-07-19T07:39:23.195Z,135
2018-07-19T07:40:03.778Z,140
2018-07-19T07:40:44.316Z,145
2018-07-19T07:41:24.867Z,130
2018-07-19T07:42:05.439Z,120
2018-07-19T07:42:46.018Z,115
2018-07-19T07:43:26.585Z,115
2018-07-19T07:44:07.148Z,110
2018-07-19T07:44:47.724Z,95
2018-07-19T07:45:28.312Z,95
2018-07-19T07:46:08.865Z,90
2018-07-19T07:46:49.434Z,85
2018-07-19T07:47:30.011Z,85
2018-07-19T07:48:10.586Z,80
2018-07-19T07:48:51.155Z,80
2018-07-19T07:49:31.730Z,80
2018-07-19T07:50:12.305Z,85
2018-07-19T07:50:52.878Z,90
2018-07-19T07:51:33.455Z,90
2018-07-19T07:52:14.056Z,95
2018-07-19T07:52:54.666Z,95
2018-07-19T07:53:35.237Z,90
2018-07-19T07:54:15.827Z,90
2018-07-19T07:54:56.506Z,90
2018-07-19T07:55:37.084Z,90
2018-07-19T07:56:17.648Z,90
2018-07-19T07:56:58.219Z,90
2018-07-19T07:57:38.793Z,90
2018-07-19T07:58:19.365Z,85
2018-07-19T07:58:59.947Z,85
2018-07-19T07:59:40.513Z,85
2018-07-19T08:00:21.131Z,85
2018-07-19T08:01:01.659Z,80
2018-07-19T08:01:42.237Z,75
2018-07-19T08:02:22.808Z,70
2018-07-19T08:03:03.367Z,65
2018-07-19T08:03:43.949Z,65
2018-07-19T08:04:24.503Z,60
2018-07-19T08:05:05.059Z,60
2018-07-19T08:05:45.637Z,60
2018-07-19T08:06:26.209Z,60
2018-07-19T08:07:06.777Z,60
2018-07-19T08:07:47.342Z,65
2018-07-19T08:08:27.917Z,65
2018-07-19T08:09:08.485Z,70
2018-07-19T08:09:49.062Z,70
2018-07-19T08:10:29.651Z,70
2018-07-19T08:11:10.239Z,70
2018-07-19T08:11:50.792Z,65
2018-07-19T08:12:31.404Z,65
2018-07-19T08:13:11.973Z,60
2018-07-19T08:13:52.541Z,60
2018-07-19T08:14:33.117Z,60
2018-07-19T08:15:13.706Z,60
2018-07-19T08:15:54.354Z,60
2018-07-19T08:16:34.898Z,60
2018-07-19T08:17:15.462Z,60
2018-07-19T08:17:56.056Z,60
2018-07-19T08:18:36.615Z,60
2018-07-19T08:19:17.230Z,60
2018-07-19T08:19:57.798Z,60
2018-07-19T08:20:38.385Z,60
2018-07-19T08:21:18.967Z,60
2018-07-19T08:21:59.543Z,60
2018-07-19T08:22:40.113Z,65
2018-07-19T08:23:20.673Z,65
2018-07-19T08:24:01.264Z,65
2018-07-19T08:24:41.861Z,65
2018-07-19T08:25:22.434Z,65
2018-07-19T08:26:03.023Z,65
2018-07-19T08:26:43.592Z,65
2018-07-19T08:27:24.165Z,70
2018-07-19T08:28:04.741Z,70
2018-07-19T08:28:45.308Z,70
2018-07-19T08:29:25.879Z,75
2018-07-19T08:30:06.454Z,75
2018-07-19T08:30:47.026Z,75
2018-07-19T08:31:27.605Z,75
2018-07-19T08:32:08.180Z,70
2018-07-19T08:32:48.749Z,70
2018-07-19T08:33:29.314Z,70
2018-07-19T08:34:09.884Z,70
2018-07-19T08:34:50.461Z,75
2018-07-19T08:35:31.034Z,75
2018-07-19T08:36:11.613Z,75
2018-07-19T08:36:52.190Z,75
2018-07-19T08:37:32.769Z,70
2018-07-19T08:38:13.344Z,75
2018-07-19T08:38:53.915Z,75
2018-07-19T08:39:34.484Z,75
2018-07-19T08:40:15.050Z,80
2018-07-19T08:40:55.632Z,80
2018-07-19T08:41:36.207Z,80
2018-07-19T08:42:16.774Z,80
2018-07-19T08:42:57.354Z,80
2018-07-19T08:43:37.927Z,75
2018-07-19T08:44:18.503Z,75
2018-07-19T08:44:59.072Z,75
2018-07-19T08:45:39.641Z,75
2018-07-19T08:46:20.225Z,80
2018-07-19T08:47:00.798Z,80
2018-07-19T08:47:41.378Z,80
2018-07-19T08:48:21.956Z,80
2018-07-19T08:49:02.529Z,80
2018-07-19T08:49:43.091Z,75
2018-07-19T08:50:23.666Z,75
2018-07-19T08:51:04.250Z,75
2018-07-19T08:51:44.804Z,70
2018-07-19T08:52:25.380Z,70
2018-07-19T08:53:05.948Z,65
2018-07-19T08:53:46.516Z,60
2018-07-19T08:54:27.090Z,60
2018-07-19T08:55:07.659Z,60
2018-07-19T08:55:48.224Z,55
2018-07-19T08:56:28.846Z,55
2018-07-19T08:57:09.369Z,55
2018-07-19T08:57:49.934Z,55
2018-07-19T08:58:30.516Z,55
2018-07-19T08:59:11.087Z,50
2018-07-19T08:59:51.654Z,50
2018-07-19T09:00:32.216Z,50
2018-07-19T09:01:12.803Z,50
2018-07-19T09:01:53.378Z,50
2018-07-19T09:02:33.954Z,50
2018-07-19T09:03:14.528Z,50
2018-07-19T09:03:55.093Z,50
2018-07-19T09:04:35.656Z,50
2018-07-19T09:05:16.221Z,55
2018-07-19T09:05:56.814Z,55
2018-07-19T09:06:37.387Z,55
2018-07-19T09:07:17.956Z,55
2018-07-19T09:07:58.546Z,55
2018-07-19T09:08:39.168Z,55
2018-07-19T09:09:19.700Z,55
2018-07-19T09:10:00.279Z,50
2018-07-19T09:10:40.845Z,50
2018-07-19T09:11:21.400Z,50
2018-07-19T09:12:01.973Z,50
2018-07-19T09:12:42.541Z,50
2018-07-19T09:13:23.120Z,50
2018-07-19T09:14:03.748Z,50
2018-07-19T09:14:44.273Z,55
2018-07-19T09:15:24.844Z,50
2018-07-19T09:16:05.417Z,50
2018-07-19T09:16:45.996Z,50
2018-07-19T09:17:26.587Z,50
2018-07-19T09:18:07.151Z,50
2018-07-19T09:18:47.726Z,50
2018-07-19T09:19:28.350Z,50
2018-07-19T09:20:08.889Z,50
2018-07-19T09:20:49.460Z,50
2018-07-19T09:21:30.028Z,45
2018-07-19T09:22:10.601Z,45
2018-07-19T09:22:51.201Z,45
2018-07-19T09:23:31.739Z,50
2018-07-19T09:24:12.317Z,50
2018-07-19T09:24:52.886Z,50
2018-07-19T09:25:33.466Z,50
2018-07-19T09:26:14.040Z,50
2018-07-19T09:26:54.613Z,50
2018-07-19T09:27:35.184Z,50
2018-07-19T09:28:15.759Z,50
2018-07-19T09:28:56.336Z,50
2018-07-19T09:29:36.904Z,55
2018-07-19T09:30:17.466Z,55
2018-07-19T09:30:58.037Z,55
2018-07-19T09:31:38.618Z,60
2018-07-19T09:32:19.185Z,60
2018-07-19T09:32:59.770Z,65
2018-07-19T09:33:40.332Z,65
2018-07-19T09:34:20.897Z,65
2018-07-19T09:35:01.474Z,70
2018-07-19T09:35:42.072Z,70
2018-07-19T09:36:22.644Z,70
2018-07-19T09:37:03.236Z,75
2018-07-19T09:37:43.782Z,75
2018-07-19T09:38:24.409Z,75